Greens Bayou, Texas
Current Conditions -  °F | °C
As of 8:50 PM on Friday 21 Nov 2014 (Local Time) from KEFD Reporting Station
Broken Clouds Broken Clouds  
Wind Chill: 63°   Ceiling: 5000
Heat Index: 63°   Visibility: 8mi
Dew Point: 63°   Wind: 8mph
Humidity: 100%   Direction: 90°E
Pressure: 30.16"   Gusts: NA
Location:  29.7654°N, 95.1705°W
Report Text: KEFD 220250Z 09007KT 8SM BKN050 17/17 A3016
Loading
Personal Weather Stations






























Interactive Weather Map New forecast layout! Learn more

10-Day Weather Forecast

Advertisements
Track Severe Weather on mobile